Daisinmaru No.11 — JK5352 — position and weather

sailwx.info

Track history (hours):
 
Tides and Currents Weather Stations Pressure Air Temp Water Temp Dewpoint Dewpoint Depression Visibility Wind Speed Wind Dir Waves Ship Positions

Daisinmaru No.11

Last reported at 2014-Nov-24 02:06 UTC. Time now 2014-Nov-24 18:01 UTC.
Position N 35°30' E 139°50'.

Length 52 m; draft 5.2 m.

Type: Cargo ship. MMSI: 431000667.

Date/timePositionNaut miles runAvg speedWind from/ knotsBaromVisibWave heightAir tempDewpointWater temp
2014-Nov-24 02:06N 35°30' E 139°50'5 9.0
2014-Nov-24 01:33N 35°30' E 139°44'1 0.8
2014-Nov-24 00:33N 35°29' E 139°43'0 0.0
2014-Nov-23 23:33N 35°29' E 139°43'0 0.3
2014-Nov-23 22:33N 35°29' E 139°43'9 9.2
2014-Nov-23 21:34N 35°29' E 139°54'2 0.0
2014-Nov-22 02:21N 35°31' E 139°54'7 9.2
2014-Nov-22 01:33N 35°30' E 139°45'2 2.2
2014-Nov-22 00:33N 35°29' E 139°43'0 0.0
2014-Nov-21 23:33N 35°29' E 139°43'1 1.2
2014-Nov-21 22:33N 35°30' E 139°44'10 9.4
2014-Nov-21 21:33N 35°29' E 139°56'5 0.3
2014-Nov-21 07:10N 35°30' E 139°50'5 8.9
2014-Nov-21 06:33N 35°29' E 139°43'0 0.2
2014-Nov-21 05:33N 35°29' E 139°43'0 0.0
2014-Nov-21 04:33N 35°29' E 139°43'0 0.0
2014-Nov-21 03:33N 35°29' E 139°43'5 4.8
2014-Nov-21 02:33N 35°30' E 139°49'  
2014-Nov-18 01:32N 35°34' E 139°47'0 0.3
2014-Nov-18 00:30N 35°34' E 139°48'10 8.9
2014-Nov-17 23:23N 35°29' E 139°58'3 0.2
2014-Nov-17 07:29N 35°29' E 139°55'8 9.1
2014-Nov-17 06:33N 35°30' E 139°45'2 1.9
2014-Nov-17 05:33N 35°29' E 139°43'0 0.0
2014-Nov-17 04:33N 35°29' E 139°43'0 0.0
2014-Nov-17 03:33N 35°29' E 139°43'9 8.5
2014-Nov-17 02:27N 35°29' E 139°54'4 0.1
2014-Nov-15 04:11N 35°30' E 139°50'5 8.7
2014-Nov-15 03:33N 35°29' E 139°43'0 0.3
2014-Nov-15 02:33N 35°29' E 139°43'0 0.0
2014-Nov-15 01:33N 35°29' E 139°43'7 6.8
2014-Nov-15 00:33N 35°30' E 139°51'  
Track history (hours):
 
Tides and Currents Weather Stations Pressure Air Temp Water Temp Dewpoint Dewpoint Depression Visibility Wind Speed Wind Dir Waves Ship Positions

Daisinmaru No.11

Last reported at 2014-Nov-24 02:06 UTC. Time now 2014-Nov-24 18:01 UTC.
Position N 35°30' E 139°50'.

Length 52 m; draft 5.2 m.

Type: Cargo ship. MMSI: 431000667.

Date/timePositionNaut miles runAvg speedWind from/ knotsBaromVisibWave heightAir tempDewpointWater temp
2014-Nov-24 02:06N 35°30' E 139°50'5 9.0
2014-Nov-24 01:33N 35°30' E 139°44'1 0.8
2014-Nov-24 00:33N 35°29' E 139°43'0 0.0
2014-Nov-23 23:33N 35°29' E 139°43'0 0.3
2014-Nov-23 22:33N 35°29' E 139°43'9 9.2
2014-Nov-23 21:34N 35°29' E 139°54'2 0.0
2014-Nov-22 02:21N 35°31' E 139°54'7 9.2
2014-Nov-22 01:33N 35°30' E 139°45'2 2.2
2014-Nov-22 00:33N 35°29' E 139°43'0 0.0
2014-Nov-21 23:33N 35°29' E 139°43'1 1.2
2014-Nov-21 22:33N 35°30' E 139°44'10 9.4
2014-Nov-21 21:33N 35°29' E 139°56'5 0.3
2014-Nov-21 07:10N 35°30' E 139°50'5 8.9
2014-Nov-21 06:33N 35°29' E 139°43'0 0.2
2014-Nov-21 05:33N 35°29' E 139°43'0 0.0
2014-Nov-21 04:33N 35°29' E 139°43'0 0.0
2014-Nov-21 03:33N 35°29' E 139°43'5 4.8
2014-Nov-21 02:33N 35°30' E 139°49'  
2014-Nov-18 01:32N 35°34' E 139°47'0 0.3
2014-Nov-18 00:30N 35°34' E 139°48'10 8.9
2014-Nov-17 23:23N 35°29' E 139°58'3 0.2
2014-Nov-17 07:29N 35°29' E 139°55'8 9.1
2014-Nov-17 06:33N 35°30' E 139°45'2 1.9
2014-Nov-17 05:33N 35°29' E 139°43'0 0.0
2014-Nov-17 04:33N 35°29' E 139°43'0 0.0
2014-Nov-17 03:33N 35°29' E 139°43'9 8.5
2014-Nov-17 02:27N 35°29' E 139°54'4 0.1
2014-Nov-15 04:11N 35°30' E 139°50'5 8.7
2014-Nov-15 03:33N 35°29' E 139°43'0 0.3
2014-Nov-15 02:33N 35°29' E 139°43'0 0.0
2014-Nov-15 01:33N 35°29' E 139°43'7 6.8
2014-Nov-15 00:33N 35°30' E 139°51'  

Dump ship's entire track history